createdAt,value
2022-12-27T00:02:22.386Z,99145.06
2022-12-27T00:04:50.199Z,99154.66
2022-12-27T00:07:17.155Z,99165.44
2022-12-27T00:09:43.930Z,99161.28
2022-12-27T00:12:11.389Z,99161.16
2022-12-27T00:14:38.100Z,99160.34
2022-12-27T00:17:04.764Z,99162.25
2022-12-27T00:19:31.626Z,99159.03
2022-12-27T00:21:58.261Z,99159.91
2022-12-27T00:24:25.086Z,99154.66
2022-12-27T00:26:51.701Z,99159.78
2022-12-27T00:29:18.439Z,99168.13
2022-12-27T00:31:45.147Z,99161.59
2022-12-27T00:34:11.854Z,99170.16
2022-12-27T00:36:38.459Z,99159.03
2022-12-27T00:39:05.356Z,99170.03
2022-12-27T00:41:32.510Z,99171.66
2022-12-27T00:43:59.152Z,99177.63
2022-12-27T00:46:25.847Z,99175.03
2022-12-27T00:48:52.901Z,99175.13
2022-12-27T00:51:22.670Z,99177.97
2022-12-27T00:53:51.060Z,99160.09
2022-12-27T00:56:31.225Z,99149.09
2022-12-27T00:59:01.006Z,99170.91
2022-12-27T01:01:30.151Z,99148.41
2022-12-27T01:03:57.891Z,99148.31
2022-12-27T01:06:29.016Z,99152.50
2022-12-27T01:08:56.687Z,99159.88
2022-12-27T01:11:24.400Z,99158.00
2022-12-27T01:13:51.153Z,99156.34
2022-12-27T01:16:21.101Z,99156.41
2022-12-27T01:18:48.285Z,99149.75
2022-12-27T01:21:17.035Z,99158.31
2022-12-27T01:23:43.746Z,99160.25
2022-12-27T01:26:13.253Z,99161.44
2022-12-27T01:28:40.121Z,99162.16
2022-12-27T01:31:08.919Z,99155.09
2022-12-27T01:33:35.720Z,99156.97
2022-12-27T01:36:20.461Z,99164.03
2022-12-27T01:38:48.743Z,99168.19
2022-12-27T01:42:01.292Z,99169.03
2022-12-27T01:44:40.440Z,99168.19
2022-12-27T01:47:23.718Z,99168.22
2022-12-27T01:50:00.886Z,99170.81
2022-12-27T01:52:37.065Z,99165.06
2022-12-27T01:55:28.455Z,99172.63
2022-12-27T01:58:02.425Z,99162.63
2022-12-27T02:00:29.126Z,99164.59
2022-12-27T02:02:56.207Z,99162.03
2022-12-27T02:05:25.452Z,99157.28
2022-12-27T02:08:02.004Z,99176.72
2022-12-27T02:10:29.814Z,99169.06
2022-12-27T02:12:57.591Z,99175.03
2022-12-27T02:15:24.236Z,99165.16
2022-12-27T02:17:50.958Z,99182.81
2022-12-27T02:20:21.620Z,99176.69
2022-12-27T02:23:40.074Z,99175.81
2022-12-27T02:26:40.620Z,99176.81
2022-12-27T02:29:15.417Z,99175.22
2022-12-27T02:31:54.694Z,99167.47
2022-12-27T02:34:30.583Z,99176.91
2022-12-27T02:37:02.953Z,99187.91
2022-12-27T02:39:34.549Z,99173.34
2022-12-27T02:42:20.584Z,99181.59
2022-12-27T02:45:19.591Z,99165.91
2022-12-27T02:48:07.236Z,99173.41
2022-12-27T02:51:28.534Z,99173.28
2022-12-27T02:54:13.951Z,99165.78
2022-12-27T02:57:10.621Z,99152.41
2022-12-27T03:00:35.707Z,99152.44
2022-12-27T03:03:28.732Z,99159.53
2022-12-27T03:06:42.596Z,99163.72
2022-12-27T03:09:09.450Z,99177.06
2022-12-27T03:12:06.586Z,99155.25
2022-12-27T03:15:02.061Z,99173.25
2022-12-27T03:17:44.143Z,99170.78
2022-12-27T03:20:34.317Z,99165.19
2022-12-27T03:23:21.314Z,99175.13
2022-12-27T03:25:50.580Z,99174.31
2022-12-27T03:28:41.628Z,99166.75
2022-12-27T03:31:36.639Z,99176.13
2022-12-27T03:34:35.035Z,99183.13
2022-12-27T03:37:27.634Z,99185.94
2022-12-27T03:40:03.381Z,99182.53
2022-12-27T03:42:52.098Z,99168.41
2022-12-27T03:45:42.282Z,99177.47
2022-12-27T03:48:13.403Z,99184.19
2022-12-27T03:50:54.572Z,99182.72
2022-12-27T03:53:31.880Z,99177.78
2022-12-27T03:55:58.802Z,99161.56
2022-12-27T03:58:25.531Z,99167.63
2022-12-27T04:00:52.614Z,99156.00
2022-12-27T04:03:19.277Z,99155.91
2022-12-27T04:05:46.012Z,99146.91
2022-12-27T04:08:31.129Z,99173.88
2022-12-27T04:11:16.525Z,99172.47
2022-12-27T04:14:01.699Z,99171.22
2022-12-27T04:16:46.901Z,99180.66
2022-12-27T04:19:32.027Z,99173.53
2022-12-27T04:22:17.262Z,99174.50
2022-12-27T04:25:02.801Z,99181.56
2022-12-27T04:27:48.027Z,99171.34
2022-12-27T04:30:33.160Z,99176.50
2022-12-27T04:33:18.573Z,99173.06
2022-12-27T04:35:45.330Z,99181.38
2022-12-27T04:38:12.012Z,99156.97
2022-12-27T04:40:57.079Z,99170.44
2022-12-27T04:43:42.324Z,99175.66
2022-12-27T04:46:41.968Z,99164.38
2022-12-27T04:49:33.172Z,99156.31
2022-12-27T04:52:19.547Z,99158.94
2022-12-27T04:54:58.180Z,99141.94
2022-12-27T04:57:26.689Z,99152.75
2022-12-27T05:00:11.947Z,99155.56
2022-12-27T05:02:39.441Z,99170.88
2022-12-27T05:05:07.501Z,99163.13
2022-12-27T05:07:52.887Z,99181.72
2022-12-27T05:10:38.326Z,99176.19
2022-12-27T05:13:23.817Z,99170.44
2022-12-27T05:15:50.483Z,99163.06
2022-12-27T05:18:17.239Z,99173.72
2022-12-27T05:20:44.126Z,99166.13
2022-12-27T05:23:28.982Z,99178.00
2022-12-27T05:25:55.804Z,99188.88
2022-12-27T05:28:22.514Z,99170.16
2022-12-27T05:30:49.160Z,99176.22
2022-12-27T05:33:16.215Z,99188.19
2022-12-27T05:35:43.245Z,99183.00
2022-12-27T05:38:09.891Z,99180.50
2022-12-27T05:40:36.773Z,99176.97
2022-12-27T05:43:04.329Z,99187.13
2022-12-27T05:45:31.203Z,99192.41
2022-12-27T05:47:59.884Z,99186.56
2022-12-27T05:50:27.161Z,99182.34
2022-12-27T05:53:07.234Z,99186.41
2022-12-27T05:55:33.832Z,99197.63
2022-12-27T05:58:00.451Z,99197.09
2022-12-27T06:00:27.430Z,99202.09
2022-12-27T06:02:54.184Z,99206.31
2022-12-27T06:05:21.042Z,99206.47
2022-12-27T06:07:47.703Z,99207.25
2022-12-27T06:10:15.520Z,99210.66
2022-12-27T06:12:42.162Z,99199.81
2022-12-27T06:15:09.614Z,99209.78
2022-12-27T06:17:36.151Z,99216.53
2022-12-27T06:20:03.130Z,99198.09
2022-12-27T06:22:29.830Z,99205.69
2022-12-27T06:24:56.488Z,99221.75
2022-12-27T06:27:23.263Z,99210.69
2022-12-27T06:29:50.020Z,99220.88
2022-12-27T06:32:17.794Z,99217.63
2022-12-27T06:34:45.469Z,99221.56
2022-12-27T06:37:12.458Z,99213.91
2022-12-27T06:39:39.082Z,99216.50
2022-12-27T06:42:05.673Z,99225.88
2022-12-27T06:44:32.379Z,99229.22
2022-12-27T06:46:59.040Z,99238.31
2022-12-27T06:49:25.920Z,99211.56
2022-12-27T06:51:59.185Z,99242.75
2022-12-27T06:54:26.495Z,99236.00
2022-12-27T06:56:53.185Z,99244.56
2022-12-27T06:59:19.786Z,99247.19
2022-12-27T07:01:46.460Z,99254.09
2022-12-27T07:04:13.217Z,99253.94
2022-12-27T07:06:39.866Z,99253.03
2022-12-27T07:09:06.857Z,99255.78
2022-12-27T07:11:35.330Z,99250.78
2022-12-27T07:14:03.253Z,99254.16
2022-12-27T07:16:31.521Z,99251.47
2022-12-27T07:18:59.277Z,99260.81
2022-12-27T07:21:27.573Z,99256.63
2022-12-27T07:23:55.315Z,99266.16
2022-12-27T07:26:29.979Z,99260.44
2022-12-27T07:28:59.630Z,99267.06
2022-12-27T07:31:29.712Z,99242.78
2022-12-27T07:33:58.296Z,99272.09
2022-12-27T07:36:27.950Z,99270.50
2022-12-27T07:38:55.293Z,99271.34
2022-12-27T07:41:21.953Z,99278.84
2022-12-27T07:43:48.682Z,99298.44
2022-12-27T07:46:18.812Z,99281.41
2022-12-27T07:48:45.953Z,99287.41
2022-12-27T07:51:13.000Z,99283.97
2022-12-27T07:53:40.125Z,99288.94
2022-12-27T07:56:21.746Z,99293.34
2022-12-27T07:58:53.346Z,99287.63
2022-12-27T08:01:24.163Z,99290.13
2022-12-27T08:03:51.151Z,99295.13
2022-12-27T08:06:34.900Z,99297.66
2022-12-27T08:09:06.835Z,99289.97
2022-12-27T08:11:33.596Z,99309.31
2022-12-27T08:14:00.229Z,99299.94
2022-12-27T08:16:27.330Z,99304.84
2022-12-27T08:18:54.159Z,99299.00
2022-12-27T08:21:21.346Z,99308.22
2022-12-27T08:23:48.085Z,99296.53
2022-12-27T08:26:15.609Z,99305.69
2022-12-27T08:28:42.733Z,99292.97
2022-12-27T08:31:11.703Z,99295.34
2022-12-27T08:33:39.128Z,99298.81
2022-12-27T08:38:55.566Z,99294.69
2022-12-27T08:41:23.123Z,99309.94
2022-12-27T08:43:49.960Z,99306.41
2022-12-27T08:46:18.817Z,99302.03
2022-12-27T08:48:49.144Z,99306.13
2022-12-27T08:51:28.472Z,99305.16
2022-12-27T08:53:59.887Z,99306.50
2022-12-27T08:56:26.628Z,99298.88
2022-12-27T08:58:53.358Z,99307.19
2022-12-27T09:01:21.176Z,99313.03
2022-12-27T09:03:48.063Z,99305.84
2022-12-27T09:06:19.845Z,99309.06
2022-12-27T09:08:48.010Z,99307.38
2022-12-27T09:11:17.898Z,99304.81
2022-12-27T09:13:44.720Z,99305.50
2022-12-27T09:16:14.242Z,99306.28
2022-12-27T09:18:42.616Z,99309.47
2022-12-27T09:21:12.472Z,99306.94
2022-12-27T09:23:41.152Z,99315.22
2022-12-27T09:26:10.001Z,99309.97
2022-12-27T09:28:36.718Z,99316.69
2022-12-27T09:31:04.377Z,99302.94
2022-12-27T09:33:31.897Z,99307.19
2022-12-27T09:36:08.040Z,99303.06
2022-12-27T09:38:35.448Z,99308.00
2022-12-27T09:41:05.989Z,99307.03
2022-12-27T09:43:43.781Z,99314.56
2022-12-27T09:46:17.348Z,99316.13
2022-12-27T09:48:46.442Z,99312.59
2022-12-27T09:51:21.294Z,99309.34
2022-12-27T09:54:10.192Z,99311.22
2022-12-27T09:57:09.564Z,99317.09
2022-12-27T09:59:36.063Z,99303.53
2022-12-27T10:02:09.682Z,99320.38
2022-12-27T10:05:09.756Z,99308.34
2022-12-27T10:07:43.158Z,99308.09
2022-12-27T10:10:26.325Z,99309.53
2022-12-27T10:12:59.287Z,99303.38
2022-12-27T10:15:37.289Z,99304.13
2022-12-27T10:18:08.745Z,99299.72
2022-12-27T10:20:57.308Z,99300.22
2022-12-27T10:23:28.301Z,99301.53
2022-12-27T10:26:01.508Z,99295.44
2022-12-27T10:28:37.625Z,99287.84
2022-12-27T10:31:05.384Z,99281.63
2022-12-27T10:33:35.258Z,99281.69
2022-12-27T10:36:09.917Z,99268.38
2022-12-27T10:38:36.497Z,99277.63
2022-12-27T10:41:08.783Z,99271.72
2022-12-27T10:43:47.977Z,99269.97
2022-12-27T10:46:21.730Z,99273.94
2022-12-27T10:49:23.181Z,99277.09
2022-12-27T10:51:52.391Z,99266.88
2022-12-27T10:54:29.101Z,99267.88
2022-12-27T10:56:57.361Z,99267.38
2022-12-27T10:59:27.114Z,99274.16
2022-12-27T11:01:59.954Z,99255.75
2022-12-27T11:04:27.628Z,99252.16
2022-12-27T11:07:01.815Z,99256.03
2022-12-27T11:09:33.136Z,99248.22
2022-12-27T11:12:13.913Z,99246.94
2022-12-27T11:14:56.265Z,99242.38
2022-12-27T11:17:38.634Z,99244.88
2022-12-27T11:20:33.889Z,99235.06
2022-12-27T11:23:04.303Z,99229.72
2022-12-27T11:25:31.722Z,99224.84
2022-12-27T11:28:03.478Z,99220.34
2022-12-27T11:30:33.852Z,99213.75
2022-12-27T11:33:07.375Z,99198.88
2022-12-27T11:35:44.968Z,99200.38
2022-12-27T11:38:26.486Z,99207.00
2022-12-27T11:41:07.123Z,99182.22
2022-12-27T11:43:42.659Z,99189.97
2022-12-27T11:46:28.360Z,99199.19
2022-12-27T11:48:58.509Z,99187.81
2022-12-27T11:51:45.332Z,99190.59
2022-12-27T11:54:33.357Z,99183.94
2022-12-27T11:57:32.171Z,99178.69
2022-12-27T12:00:10.871Z,99180.50
2022-12-27T12:03:00.613Z,99183.31
2022-12-27T12:05:37.569Z,99171.59
2022-12-27T12:08:31.612Z,99171.03
2022-12-27T12:11:35.679Z,99162.91
2022-12-27T12:14:05.281Z,99170.22
2022-12-27T12:16:50.321Z,99162.22
2022-12-27T12:19:33.497Z,99148.34
2022-12-27T12:22:19.057Z,99151.63
2022-12-27T12:25:05.709Z,99153.91
2022-12-27T12:27:47.997Z,99154.03
2022-12-27T12:30:49.301Z,99150.75
2022-12-27T12:33:43.674Z,99140.84
2022-12-27T12:36:36.642Z,99132.50
2022-12-27T12:39:15.510Z,99120.97
2022-12-27T12:41:44.981Z,99126.44
2022-12-27T12:44:41.502Z,99134.88
2022-12-27T12:47:17.092Z,99123.72
2022-12-27T12:49:54.465Z,99120.56
2022-12-27T12:52:28.279Z,99118.44
2022-12-27T12:55:00.958Z,99111.09
2022-12-27T12:57:39.777Z,99109.66
2022-12-27T13:00:09.212Z,99113.63
2022-12-27T13:03:00.796Z,99111.94
2022-12-27T13:05:46.391Z,99105.69
2022-12-27T13:08:29.634Z,99114.94
2022-12-27T13:11:27.389Z,99109.72
2022-12-27T13:14:02.300Z,99117.44
2022-12-27T13:16:57.195Z,99116.53
2022-12-27T13:19:34.941Z,99112.91
2022-12-27T13:22:21.815Z,99114.63
2022-12-27T13:25:10.363Z,99104.59
2022-12-27T13:28:04.398Z,99106.66
2022-12-27T13:30:42.265Z,99104.03
2022-12-27T13:33:46.407Z,99109.31
2022-12-27T13:36:26.985Z,99103.13
2022-12-27T13:39:18.275Z,99101.13
2022-12-27T13:42:22.846Z,99105.75
2022-12-27T13:45:19.964Z,99097.38
2022-12-27T13:48:05.851Z,99104.56
2022-12-27T13:50:47.412Z,99105.84
2022-12-27T13:53:17.167Z,99104.56
2022-12-27T13:56:14.877Z,99100.84
2022-12-27T13:59:17.093Z,99110.78
2022-12-27T14:02:02.785Z,99109.19
2022-12-27T14:04:53.395Z,99108.81
2022-12-27T14:07:44.592Z,99114.09
2022-12-27T14:10:21.657Z,99107.59
2022-12-27T14:12:59.159Z,99113.84
2022-12-27T14:15:43.227Z,99116.34
2022-12-27T14:18:24.702Z,99121.06
2022-12-27T14:21:19.169Z,99121.34
2022-12-27T14:23:55.928Z,99126.34
2022-12-27T14:26:57.851Z,99124.81
2022-12-27T14:29:43.169Z,99124.53
2022-12-27T14:32:40.592Z,99121.91
2022-12-27T14:35:43.171Z,99120.28
2022-12-27T14:38:19.063Z,99128.66
2022-12-27T14:40:54.811Z,99131.38
2022-12-27T14:43:27.715Z,99138.50
2022-12-27T14:46:25.142Z,99125.88
2022-12-27T14:49:26.721Z,99142.63
2022-12-27T14:52:12.741Z,99137.97
2022-12-27T14:55:29.947Z,99137.06
2022-12-27T14:58:37.774Z,99153.66
2022-12-27T15:01:17.783Z,99154.16
2022-12-27T15:04:14.388Z,99153.06
2022-12-27T15:07:17.993Z,99155.78
2022-12-27T15:10:07.238Z,99154.69
2022-12-27T15:12:59.816Z,99155.19
2022-12-27T15:15:45.328Z,99144.38
2022-12-27T15:18:24.982Z,99142.19
2022-12-27T15:20:51.626Z,99157.97
2022-12-27T15:23:40.170Z,99148.34
2022-12-27T15:26:15.597Z,99167.59
2022-12-27T15:29:00.467Z,99168.88
2022-12-27T15:31:38.597Z,99180.03
2022-12-27T15:34:32.661Z,99181.75
2022-12-27T15:36:59.696Z,99179.59
2022-12-27T15:39:35.555Z,99181.03
2022-12-27T15:42:31.591Z,99192.75
2022-12-27T15:45:29.607Z,99201.25
2022-12-27T15:48:11.443Z,99214.28
2022-12-27T15:50:48.137Z,99207.84
2022-12-27T15:53:34.971Z,99211.47
2022-12-27T15:56:16.239Z,99208.50
2022-12-27T15:58:43.478Z,99212.72
2022-12-27T16:01:22.122Z,99213.44
2022-12-27T16:03:53.322Z,99225.31
2022-12-27T16:06:35.091Z,99212.16
2022-12-27T16:09:28.055Z,99211.72
2022-12-27T16:12:10.117Z,99221.31
2022-12-27T16:14:39.777Z,99212.72
2022-12-27T16:17:30.233Z,99225.38
2022-12-27T16:20:09.022Z,99224.53
2022-12-27T16:22:40.018Z,99218.81
2022-12-27T16:25:31.108Z,99232.69
2022-12-27T16:28:02.994Z,99232.16
2022-12-27T16:30:54.654Z,99230.50
2022-12-27T16:33:27.432Z,99221.84
2022-12-27T16:36:12.698Z,99236.88
2022-12-27T16:38:50.395Z,99230.09
2022-12-27T16:41:41.918Z,99237.19
2022-12-27T16:44:22.509Z,99228.00
2022-12-27T16:47:07.530Z,99232.34
2022-12-27T16:49:55.631Z,99234.88
2022-12-27T16:52:53.339Z,99235.63
2022-12-27T16:55:22.915Z,99238.44
2022-12-27T16:57:51.071Z,99238.34
2022-12-27T17:00:53.359Z,99235.03
2022-12-27T17:03:35.405Z,99246.22
2022-12-27T17:06:31.975Z,99244.44
2022-12-27T17:09:08.824Z,99243.78
2022-12-27T17:11:47.549Z,99243.81
2022-12-27T17:14:20.237Z,99243.88
2022-12-27T17:16:58.933Z,99244.09
2022-12-27T17:19:43.858Z,99248.38
2022-12-27T17:22:14.808Z,99247.63
2022-12-27T17:24:42.995Z,99248.19
2022-12-27T17:27:34.817Z,99244.97
2022-12-27T17:30:13.706Z,99253.81
2022-12-27T17:32:53.133Z,99254.00
2022-12-27T17:35:31.943Z,99255.88
2022-12-27T17:38:19.618Z,99261.03
2022-12-27T17:41:04.241Z,99258.41
2022-12-27T17:44:04.669Z,99260.06
2022-12-27T17:46:43.373Z,99263.75
2022-12-27T17:49:11.741Z,99264.28
2022-12-27T17:52:01.996Z,99265.81
2022-12-27T17:54:48.768Z,99277.09
2022-12-27T17:57:36.994Z,99278.88
2022-12-27T18:00:06.439Z,99283.94
2022-12-27T18:02:40.254Z,99287.06
2022-12-27T18:05:12.970Z,99289.91
2022-12-27T18:07:43.567Z,99290.94
2022-12-27T18:10:13.336Z,99294.09
2022-12-27T18:12:42.120Z,99288.81
2022-12-27T18:15:15.814Z,99287.06
2022-12-27T18:17:46.510Z,99301.63
2022-12-27T18:20:28.397Z,99307.94
2022-12-27T18:23:01.273Z,99302.81
2022-12-27T18:25:40.189Z,99312.31
2022-12-27T18:28:20.048Z,99311.63
2022-12-27T18:30:52.815Z,99305.75
2022-12-27T18:33:26.937Z,99312.44
2022-12-27T18:35:53.866Z,99313.91
2022-12-27T18:38:54.878Z,99319.00
2022-12-27T18:41:23.204Z,99318.16
2022-12-27T18:43:56.972Z,99310.72
2022-12-27T18:46:33.772Z,99316.63
2022-12-27T18:49:01.377Z,99320.41
2022-12-27T18:51:37.277Z,99320.38
2022-12-27T18:54:22.096Z,99313.84
2022-12-27T18:56:53.403Z,99321.59
2022-12-27T18:59:27.808Z,99329.09
2022-12-27T19:01:58.014Z,99324.56
2022-12-27T19:04:30.419Z,99330.72
2022-12-27T19:07:14.988Z,99314.94
2022-12-27T19:09:49.601Z,99328.78
2022-12-27T19:12:26.730Z,99326.91
2022-12-27T19:14:54.097Z,99335.44
2022-12-27T19:17:25.901Z,99336.69
2022-12-27T19:19:56.221Z,99347.97
2022-12-27T19:22:35.087Z,99340.16
2022-12-27T19:25:19.216Z,99342.81
2022-12-27T19:27:57.950Z,99349.59
2022-12-27T19:30:38.092Z,99342.81
2022-12-27T19:33:08.984Z,99347.16
2022-12-27T19:35:36.405Z,99347.94
2022-12-27T19:38:03.356Z,99348.84
2022-12-27T19:40:30.278Z,99349.91
2022-12-27T19:42:56.952Z,99343.28
2022-12-27T19:45:23.769Z,99348.84
2022-12-27T19:47:51.943Z,99346.38
2022-12-27T19:50:18.642Z,99338.22
2022-12-27T19:52:47.565Z,99351.13
2022-12-27T19:55:19.517Z,99344.09
2022-12-27T19:57:46.171Z,99359.59
2022-12-27T20:00:18.252Z,99348.00
2022-12-27T20:02:45.305Z,99354.50
2022-12-27T20:05:12.559Z,99363.13
2022-12-27T20:07:40.142Z,99356.25
2022-12-27T20:10:07.411Z,99369.75
2022-12-27T20:12:34.150Z,99370.75
2022-12-27T20:15:00.934Z,99373.50
2022-12-27T20:17:28.759Z,99381.38
2022-12-27T20:19:55.449Z,99385.59
2022-12-27T20:22:22.304Z,99391.53
2022-12-27T20:24:48.854Z,99389.84
2022-12-27T20:27:15.712Z,99391.38
2022-12-27T20:29:42.372Z,99398.00
2022-12-27T20:32:09.155Z,99398.84
2022-12-27T20:34:35.756Z,99404.97
2022-12-27T20:37:02.460Z,99401.00
2022-12-27T20:39:29.139Z,99404.63
2022-12-27T20:41:56.303Z,99403.19
2022-12-27T20:44:23.114Z,99410.53
2022-12-27T20:46:50.736Z,99406.97
2022-12-27T20:49:17.481Z,99412.06
2022-12-27T20:51:44.310Z,99410.22
2022-12-27T20:54:13.538Z,99414.34
2022-12-27T20:56:40.223Z,99420.38
2022-12-27T20:59:07.313Z,99421.44
2022-12-27T21:01:34.393Z,99422.28
2022-12-27T21:04:01.034Z,99431.81
2022-12-27T21:06:29.661Z,99427.84
2022-12-27T21:08:58.468Z,99423.53
2022-12-27T21:11:28.497Z,99428.56
2022-12-27T21:13:55.735Z,99419.06
2022-12-27T21:16:25.766Z,99429.19
2022-12-27T21:18:53.327Z,99431.91
2022-12-27T21:21:24.607Z,99432.84
2022-12-27T21:23:53.691Z,99433.56
2022-12-27T21:26:23.912Z,99435.34
2022-12-27T21:28:51.134Z,99441.44
2022-12-27T21:31:18.436Z,99435.72
2022-12-27T21:33:45.859Z,99435.13
2022-12-27T21:36:15.758Z,99427.34
2022-12-27T21:38:43.363Z,99430.56
2022-12-27T21:41:14.017Z,99438.81
2022-12-27T21:43:41.970Z,99434.56
2022-12-27T21:46:14.996Z,99447.28
2022-12-27T21:48:42.003Z,99448.22
2022-12-27T21:51:16.452Z,99459.28
2022-12-27T21:53:44.130Z,99460.19
2022-12-27T21:56:12.888Z,99455.94
2022-12-27T21:58:40.704Z,99455.03
2022-12-27T22:01:13.497Z,99456.00
2022-12-27T22:03:43.430Z,99455.31
2022-12-27T22:06:12.924Z,99454.38
2022-12-27T22:08:41.039Z,99451.72
2022-12-27T22:11:08.520Z,99449.97
2022-12-27T22:13:35.143Z,99455.09
2022-12-27T22:16:04.278Z,99454.56
2022-12-27T22:18:32.688Z,99461.34
2022-12-27T22:21:01.976Z,99464.63
2022-12-27T22:23:33.224Z,99458.66
2022-12-27T22:25:59.937Z,99456.22
2022-12-27T22:28:26.668Z,99453.16
2022-12-27T22:30:53.546Z,99459.09
2022-12-27T22:33:20.640Z,99458.19
2022-12-27T22:35:47.338Z,99461.56
2022-12-27T22:38:14.036Z,99469.06
2022-12-27T22:40:45.973Z,99465.69
2022-12-27T22:43:13.987Z,99467.53
2022-12-27T22:45:42.316Z,99459.22
2022-12-27T22:48:09.032Z,99460.00
2022-12-27T22:50:37.667Z,99466.78
2022-12-27T22:53:04.605Z,99463.31
2022-12-27T22:55:31.324Z,99468.41
2022-12-27T22:57:58.044Z,99471.16
2022-12-27T23:00:24.715Z,99479.53
2022-12-27T23:02:51.582Z,99474.69
2022-12-27T23:05:18.397Z,99480.72
2022-12-27T23:08:05.262Z,99472.06
2022-12-27T23:10:31.747Z,99470.38
2022-12-27T23:12:58.373Z,99470.47
2022-12-27T23:15:25.136Z,99472.91
2022-12-27T23:17:51.973Z,99466.81
2022-12-27T23:20:18.945Z,99473.75
2022-12-27T23:22:45.467Z,99460.25
2022-12-27T23:25:12.223Z,99462.00
2022-12-27T23:27:38.871Z,99465.59
2022-12-27T23:30:06.232Z,99459.78
2022-12-27T23:32:32.865Z,99465.59
2022-12-27T23:34:59.524Z,99473.19
2022-12-27T23:37:26.166Z,99483.34
2022-12-27T23:39:52.935Z,99476.69
2022-12-27T23:42:19.567Z,99482.72
2022-12-27T23:44:46.318Z,99481.03
2022-12-27T23:47:12.871Z,99487.69
2022-12-27T23:49:39.597Z,99474.25
2022-12-27T23:52:06.374Z,99471.59
2022-12-27T23:54:33.097Z,99474.84
2022-12-27T23:57:19.470Z,99471.53
2022-12-27T23:59:46.368Z,99452.25
